createdAt,value
2023-05-08T00:03:44.642Z,59.05
2023-05-08T00:08:48.977Z,65.53
2023-05-08T00:13:53.206Z,64.70
2023-05-08T00:18:57.525Z,62.92
2023-05-08T00:24:01.332Z,63.58
2023-05-08T00:29:06.733Z,61.53
2023-05-08T00:34:10.986Z,54.35
2023-05-08T00:39:15.150Z,58.22
2023-05-08T00:44:19.130Z,54.85
2023-05-08T00:49:23.814Z,57.90
2023-05-08T00:54:28.677Z,61.03
2023-05-08T00:59:32.892Z,59.95
2023-05-08T01:04:38.508Z,62.10
2023-05-08T01:09:42.448Z,56.30
2023-05-08T01:15:13.644Z,56.47
2023-05-08T01:20:54.321Z,57.90
2023-05-08T01:26:17.034Z,54.53
2023-05-08T01:31:45.457Z,66.25
2023-05-08T01:37:00.509Z,56.35
2023-05-08T01:42:11.427Z,61.50
2023-05-08T01:47:18.879Z,166.50
2023-05-08T01:52:35.789Z,259.65
2023-05-08T01:57:47.877Z,100.65
2023-05-08T02:02:53.223Z,60.60
2023-05-08T02:07:58.256Z,64.40
2023-05-08T02:13:03.377Z,87.82
2023-05-08T02:18:10.743Z,78.80
2023-05-08T02:23:20.541Z,93.32
2023-05-08T02:28:25.662Z,91.90
2023-05-08T02:33:31.142Z,104.35
2023-05-08T02:38:38.499Z,81.68
2023-05-08T02:43:43.378Z,53.58
2023-05-08T02:49:06.014Z,56.47
2023-05-08T02:54:25.409Z,61.45
2023-05-08T02:59:45.236Z,183.50
2023-05-08T03:05:04.126Z,67.28
2023-05-08T03:10:14.296Z,59.97
2023-05-08T03:15:44.317Z,57.05
2023-05-08T03:20:53.649Z,51.83
2023-05-08T03:26:53.726Z,53.38
2023-05-08T03:32:02.808Z,51.42
2023-05-08T03:37:07.182Z,49.72
2023-05-08T03:42:17.713Z,73.72
2023-05-08T03:47:22.920Z,90.63
2023-05-08T03:52:27.415Z,58.63
2023-05-08T03:58:04.125Z,51.35
2023-05-08T04:03:29.478Z,76.78
2023-05-08T04:08:44.092Z,48.97
2023-05-08T04:13:55.326Z,52.45
2023-05-08T04:19:05.074Z,47.03
2023-05-08T04:29:15.757Z,55.75
2023-05-08T04:34:20.418Z,51.58
2023-05-08T04:39:24.636Z,43.70
2023-05-08T04:44:29.233Z,56.80
2023-05-08T04:49:33.388Z,54.38
2023-05-08T04:54:37.736Z,54.78
2023-05-08T04:59:41.738Z,55.33
2023-05-08T05:04:46.179Z,54.15
2023-05-08T05:09:51.002Z,55.95
2023-05-08T05:14:55.121Z,52.20
2023-05-08T05:20:00.780Z,54.53
2023-05-08T05:25:07.720Z,76.00
2023-05-08T05:30:13.162Z,62.60
2023-05-08T05:35:17.845Z,50.58
2023-05-08T05:40:22.040Z,52.42
2023-05-08T05:45:26.449Z,50.40
2023-05-08T05:50:30.507Z,56.40
2023-05-08T05:55:36.291Z,48.78
2023-05-08T06:00:40.628Z,68.43
2023-05-08T06:05:47.814Z,47.85
2023-05-08T06:10:51.673Z,48.70
2023-05-08T06:15:59.511Z,29.70
2023-05-08T06:21:03.609Z,28.30
2023-05-08T06:26:07.713Z,30.25
2023-05-08T06:31:11.866Z,27.05
2023-05-08T06:36:16.204Z,28.30
2023-05-08T06:41:20.454Z,33.05
2023-05-08T06:46:24.505Z,35.53
2023-05-08T06:51:28.584Z,40.55
2023-05-08T06:56:32.644Z,36.38
2023-05-08T07:01:38.212Z,42.88
2023-05-08T07:06:42.212Z,46.13
2023-05-08T07:11:46.404Z,44.88
2023-05-08T07:16:50.396Z,45.60
2023-05-08T07:21:54.175Z,35.88
2023-05-08T07:27:00.556Z,37.33
2023-05-08T07:32:09.126Z,34.78
2023-05-08T07:37:13.476Z,40.20
2023-05-08T07:42:19.194Z,44.30
2023-05-08T07:47:23.348Z,39.30
2023-05-08T07:52:27.369Z,39.38
2023-05-08T07:57:40.575Z,41.50
2023-05-08T08:02:46.097Z,41.67
2023-05-08T08:07:50.178Z,44.78
2023-05-08T08:12:54.060Z,39.88
2023-05-08T08:17:58.373Z,34.13
2023-05-08T08:23:02.312Z,29.95
2023-05-08T08:28:06.415Z,31.95
2023-05-08T08:33:10.531Z,31.05
2023-05-08T08:38:14.559Z,29.15
2023-05-08T08:43:19.003Z,30.92
2023-05-08T08:48:29.381Z,31.92
2023-05-08T08:53:38.710Z,34.75
2023-05-08T08:58:57.819Z,32.95
2023-05-08T09:04:02.269Z,37.10
2023-05-08T09:09:07.039Z,41.17
2023-05-08T09:14:10.897Z,41.83
2023-05-08T09:19:17.294Z,38.33
2023-05-08T09:24:21.482Z,39.35
2023-05-08T09:29:25.608Z,41.75
2023-05-08T09:34:34.089Z,38.95
2023-05-08T09:39:42.275Z,42.60
2023-05-08T09:44:54.542Z,42.17
2023-05-08T09:50:09.648Z,37.00
2023-05-08T09:55:13.798Z,39.10
2023-05-08T10:00:18.193Z,37.47
2023-05-08T10:05:33.792Z,35.75
2023-05-08T10:10:39.271Z,60.55
2023-05-08T10:15:44.657Z,34.90
2023-05-08T10:20:50.739Z,30.55
2023-05-08T10:26:01.811Z,31.77
2023-05-08T10:31:09.169Z,23.55
2023-05-08T10:36:15.358Z,26.05
2023-05-08T10:41:23.019Z,30.25
2023-05-08T10:46:49.876Z,50.42
2023-05-08T10:52:10.334Z,49.30
2023-05-08T10:57:14.170Z,42.83
2023-05-08T11:02:29.621Z,24.80
2023-05-08T11:07:56.642Z,26.02
2023-05-08T11:13:02.131Z,31.02
2023-05-08T11:18:18.578Z,31.67
2023-05-08T11:23:27.775Z,38.08
2023-05-08T11:28:39.365Z,41.45
2023-05-08T11:33:43.293Z,34.08
2023-05-08T11:39:09.444Z,40.05
2023-05-08T11:44:32.784Z,34.72
2023-05-08T11:49:37.636Z,46.13
2023-05-08T11:54:41.533Z,34.13
2023-05-08T11:59:45.741Z,37.22
2023-05-08T12:04:49.955Z,35.15
2023-05-08T12:09:54.725Z,40.20
2023-05-08T12:14:58.798Z,38.15
2023-05-08T12:20:18.297Z,38.28
2023-05-08T12:25:22.633Z,35.38
2023-05-08T12:30:26.981Z,33.97
2023-05-08T12:35:31.789Z,33.95
2023-05-08T12:40:43.704Z,32.22
2023-05-08T12:45:48.067Z,40.42
2023-05-08T12:50:51.915Z,33.70
2023-05-08T12:55:59.034Z,29.83
2023-05-08T13:01:07.111Z,33.38
2023-05-08T13:06:23.643Z,29.15
2023-05-08T13:11:33.861Z,42.72
2023-05-08T13:16:48.567Z,28.83
2023-05-08T13:21:53.665Z,30.70
2023-05-08T13:26:57.682Z,25.45
2023-05-08T13:32:01.671Z,26.65
2023-05-08T13:37:05.794Z,23.83
2023-05-08T13:42:10.594Z,81.43
2023-05-08T13:47:14.652Z,107.60
2023-05-08T13:52:18.710Z,201.40
2023-05-08T13:57:23.412Z,74.68
2023-05-08T14:02:27.930Z,133.23
2023-05-08T14:07:32.128Z,119.28
2023-05-08T14:12:36.924Z,244.77
2023-05-08T14:17:41.066Z,116.05
2023-05-08T14:22:46.205Z,157.88
2023-05-08T14:27:51.937Z,148.55
2023-05-08T14:32:55.855Z,130.50
2023-05-08T14:38:00.033Z,116.28
2023-05-08T14:43:04.071Z,158.07
2023-05-08T14:48:08.278Z,126.57
2023-05-08T14:53:12.194Z,97.97
2023-05-08T14:58:16.379Z,105.93
2023-05-08T15:03:20.546Z,125.72
2023-05-08T15:08:24.612Z,158.07
2023-05-08T15:13:28.650Z,100.88
2023-05-08T15:18:32.544Z,289.33
2023-05-08T15:23:37.201Z,184.05
2023-05-08T15:28:42.054Z,153.15
2023-05-08T15:33:46.114Z,119.95
2023-05-08T15:38:50.173Z,125.65
2023-05-08T15:43:55.953Z,146.02
2023-05-08T15:49:01.988Z,148.88
2023-05-08T15:54:06.846Z,148.57
2023-05-08T15:59:10.833Z,142.38
2023-05-08T16:04:14.806Z,154.77
2023-05-08T16:09:18.801Z,386.55
2023-05-08T16:14:22.638Z,350.60
2023-05-08T16:19:26.639Z,167.80
2023-05-08T16:24:32.304Z,112.32
2023-05-08T16:29:36.211Z,128.77
2023-05-08T16:34:40.367Z,234.52
2023-05-08T16:39:44.201Z,352.38
2023-05-08T16:44:48.580Z,197.18
2023-05-08T16:49:52.608Z,549.75
2023-05-08T16:54:56.598Z,168.40
2023-05-08T17:00:00.597Z,159.60
2023-05-08T17:05:04.674Z,216.30
2023-05-08T17:10:09.888Z,155.02
2023-05-08T17:15:13.928Z,131.43
2023-05-08T17:20:18.177Z,79.97
2023-05-08T17:25:23.356Z,68.22
2023-05-08T17:30:28.597Z,58.53
2023-05-08T17:35:32.476Z,59.58
2023-05-08T17:40:37.657Z,71.65
2023-05-08T17:45:41.730Z,88.05
2023-05-08T17:50:47.492Z,95.88
2023-05-08T17:55:51.487Z,83.25
2023-05-08T18:00:56.769Z,83.10
2023-05-08T18:06:00.872Z,102.70
2023-05-08T18:11:04.672Z,108.28
2023-05-08T18:16:08.681Z,52.60
2023-05-08T18:21:12.497Z,100.90
2023-05-08T18:26:17.227Z,125.60
2023-05-08T18:31:21.644Z,55.40
2023-05-08T18:36:25.607Z,53.33
2023-05-08T18:41:29.644Z,65.22
2023-05-08T18:46:33.549Z,77.13
2023-05-08T18:51:37.661Z,90.10
2023-05-08T18:56:41.683Z,121.32
2023-05-08T19:01:45.671Z,130.32
2023-05-08T19:06:49.717Z,127.68
2023-05-08T19:11:53.533Z,109.20
2023-05-08T19:16:58.479Z,66.25
2023-05-08T19:22:02.622Z,54.08
2023-05-08T19:27:07.409Z,58.80
2023-05-08T19:32:11.495Z,54.00
2023-05-08T19:37:15.270Z,53.65
2023-05-08T19:42:19.200Z,51.50
2023-05-08T19:47:23.073Z,55.30
2023-05-08T19:52:27.518Z,53.28
2023-05-08T19:57:31.457Z,55.85
2023-05-08T20:02:35.339Z,57.20
2023-05-08T20:07:39.307Z,49.25
2023-05-08T20:12:43.237Z,54.97
2023-05-08T20:17:47.374Z,52.03
2023-05-08T20:22:51.339Z,57.75
2023-05-08T20:27:55.285Z,57.40
2023-05-08T20:33:05.514Z,55.08
2023-05-08T20:38:09.897Z,57.05
2023-05-08T20:43:13.805Z,53.63
2023-05-08T20:48:17.833Z,54.83
2023-05-08T20:53:22.107Z,55.40
2023-05-08T20:58:25.979Z,53.47
2023-05-08T21:03:30.008Z,58.72
2023-05-08T21:08:33.804Z,51.00
2023-05-08T21:13:37.668Z,47.20
2023-05-08T21:18:41.658Z,62.47
2023-05-08T21:23:45.483Z,60.15
2023-05-08T21:28:49.559Z,61.83
2023-05-08T21:33:53.703Z,61.08
2023-05-08T21:38:57.848Z,66.70
2023-05-08T21:44:01.994Z,57.47
2023-05-08T21:49:06.068Z,57.17
2023-05-08T21:54:10.440Z,62.50
2023-05-08T21:59:14.214Z,57.97
2023-05-08T22:04:18.202Z,63.25
2023-05-08T22:09:22.355Z,57.28
2023-05-08T22:14:26.405Z,55.05
2023-05-08T22:19:30.406Z,52.65
2023-05-08T22:24:34.180Z,53.70
2023-05-08T22:29:38.202Z,58.22
2023-05-08T22:34:42.537Z,54.00
2023-05-08T22:39:46.278Z,58.03
2023-05-08T22:44:50.258Z,61.30
2023-05-08T22:49:54.995Z,61.70
2023-05-08T22:54:59.209Z,60.35
2023-05-08T23:00:03.229Z,55.22
2023-05-08T23:05:10.290Z,54.45
2023-05-08T23:10:14.885Z,54.25
2023-05-08T23:15:19.186Z,52.45
2023-05-08T23:20:23.092Z,56.60
2023-05-08T23:25:27.162Z,47.38
2023-05-08T23:30:31.387Z,46.60
2023-05-08T23:35:35.306Z,54.10
2023-05-08T23:41:19.454Z,45.60
2023-05-08T23:46:23.334Z,44.45
2023-05-08T23:51:27.429Z,46.03
2023-05-08T23:56:31.650Z,44.92
